Time;durP1;ratioP1;P1;durP2;ratioP2;P2;SDS_P1;SDS_P2;PMS_P1;PMS_P2;Temp;Humidity;BMP_temperature;BMP_pressure;BME280_temperature;BME280_humidity;BME280_pressure;Samples;Min_cycle;Max_cycle;Signal;HPM_P1;HPM_P2
2022/12/27 00:01:34;;;;;;;6.75;0.80;;;;;;;2.87;100.00;101567.97;6221690;28;20412;-73
2022/12/27 00:04:36;;;;;;;6.80;0.95;;;;;;;2.86;100.00;101569.69;6212644;23;20046;-72
2022/12/27 00:07:38;;;;;;;1.35;0.60;;;;;;;2.87;100.00;101576.59;6192815;28;20046;-72
2022/12/27 00:10:40;;;;;;;5.10;1.42;;;;;;;2.89;100.00;101576.59;6189634;28;20686;-72
2022/12/27 00:13:42;;;;;;;3.47;1.02;;;;;;;2.90;100.00;101579.16;6197153;28;20054;-72
2022/12/27 00:16:44;;;;;;;2.05;0.68;;;;;;;2.83;100.00;101574.06;6197450;28;20057;-72
2022/12/27 00:19:45;;;;;;;1.13;0.63;;;;;;;2.81;100.00;101574.03;6197215;28;20057;-72
2022/12/27 00:22:48;;;;;;;3.55;1.02;;;;;;;2.87;100.00;101576.59;6197434;28;20410;-74
2022/12/27 00:25:49;;;;;;;6.10;1.05;;;;;;;2.83;100.00;101580.09;6187585;28;20046;-73
2022/12/27 00:28:50;;;;;;;1.80;0.73;;;;;;;2.88;100.00;101591.31;6173259;28;20043;-72
2022/12/27 00:31:52;;;;;;;1.65;0.77;;;;;;;2.83;100.00;101582.69;6173117;28;20418;-72
2022/12/27 00:34:53;;;;;;;1.88;0.55;;;;;;;2.79;100.00;101584.44;6173213;28;20043;-72
2022/12/27 00:37:56;;;;;;;3.47;0.60;;;;;;;2.82;100.00;101583.56;6173253;28;20050;-72
2022/12/27 00:40:57;;;;;;;2.58;0.50;;;;;;;2.86;100.00;101587.88;6173098;28;20047;-72
2022/12/27 00:43:59;;;;;;;1.27;0.80;;;;;;;2.86;100.00;101593.06;6173234;28;20047;-72
2022/12/27 00:47:00;;;;;;;0.80;0.68;;;;;;;2.86;100.00;101592.16;6173094;28;20055;-72
2022/12/27 00:50:01;;;;;;;3.72;0.60;;;;;;;2.88;100.00;101593.91;6172847;28;20411;-72
2022/12/27 00:53:04;;;;;;;3.83;0.90;;;;;;;2.74;100.00;101593.16;6172876;28;20058;-72
2022/12/27 00:56:06;;;;;;;3.40;1.02;;;;;;;2.84;100.00;101593.94;6173121;28;20062;-72
2022/12/27 00:59:11;;;;;;;5.28;1.05;;;;;;;2.77;100.00;101599.19;6172931;28;20050;-72
2022/12/27 01:02:13;;;;;;;8.75;0.80;;;;;;;2.72;100.00;101594.88;6176987;28;20059;-72
2022/12/27 01:05:14;;;;;;;3.75;0.88;;;;;;;2.79;100.00;101587.03;6176851;28;20054;-72
2022/12/27 01:08:17;;;;;;;2.95;1.00;;;;;;;2.83;100.00;101592.22;6181598;28;20490;-72
2022/12/27 01:11:18;;;;;;;0.95;0.85;;;;;;;2.82;100.00;101587.88;6193137;28;20049;-72
2022/12/27 01:14:19;;;;;;;7.85;1.70;;;;;;;2.79;100.00;101597.41;6189803;28;20058;-72
2022/12/27 01:17:21;;;;;;;2.17;0.88;;;;;;;2.71;100.00;101595.75;6198791;28;20054;-72
2022/12/27 01:20:23;;;;;;;2.90;0.75;;;;;;;2.68;100.00;101611.34;6200907;28;20514;-72
2022/12/27 01:23:26;;;;;;;3.50;0.80;;;;;;;2.75;100.00;101613.03;6201184;28;20050;-72
2022/12/27 01:26:28;;;;;;;6.55;0.80;;;;;;;2.84;100.00;101607.78;6192897;28;20129;-72
2022/12/27 01:29:29;;;;;;;1.35;0.70;;;;;;;2.83;100.00;101615.56;6192765;28;20061;-72
2022/12/27 01:32:32;;;;;;;0.65;0.63;;;;;;;2.80;100.00;101624.22;6200748;28;20545;-73
2022/12/27 01:35:33;;;;;;;4.70;0.93;;;;;;;2.79;100.00;101609.53;6200789;28;20054;-73
2022/12/27 01:38:36;;;;;;;1.80;0.73;;;;;;;2.69;100.00;101611.34;6200892;28;20046;-72
2022/12/27 01:44:59;;;;;;;3.70;0.90;;;;;;;2.80;100.00;101614.72;6200219;28;20422;-73
2022/12/27 01:48:04;;;;;;;1.48;0.80;;;;;;;2.77;100.00;101621.66;6200651;28;20117;-72
2022/12/27 01:51:06;;;;;;;1.48;0.90;;;;;;;2.78;100.00;101613.00;6200267;28;20065;-72
2022/12/27 01:54:09;;;;;;;4.20;1.38;;;;;;;2.76;100.00;101619.94;6189437;28;20054;-72
2022/12/27 01:57:11;;;;;;;5.95;1.10;;;;;;;2.73;100.00;101619.97;6196289;28;20054;-72
2022/12/27 02:00:13;;;;;;;0.82;0.73;;;;;;;2.63;100.00;101624.34;6200210;28;20046;-72
2022/12/27 02:03:22;;;;;;;2.55;1.10;;;;;;;2.71;100.00;101624.28;6200233;28;20057;-72
2022/12/27 02:06:23;;;;;;;2.50;0.98;;;;;;;2.74;100.00;101632.06;6200135;28;20495;-72
2022/12/27 02:09:31;;;;;;;6.43;1.02;;;;;;;2.72;100.00;101631.19;6200177;28;20050;-72
2022/12/27 02:12:32;;;;;;;1.10;0.60;;;;;;;2.77;100.00;101625.13;6199290;28;20421;-72
2022/12/27 02:15:34;;;;;;;2.03;1.05;;;;;;;2.68;100.00;101632.97;6199768;28;20053;-72
2022/12/27 02:18:36;;;;;;;2.17;1.02;;;;;;;2.73;100.00;101631.22;6189956;28;20490;-72
2022/12/27 02:21:54;;;;;;;2.92;0.98;;;;;;;2.71;100.00;101627.75;6175434;28;20414;-72
2022/12/27 02:25:14;;;;;;;2.00;0.70;;;;;;;2.69;100.00;101632.09;6175334;28;20047;-72
2022/12/27 02:28:31;;;;;;;0.98;0.90;;;;;;;2.70;100.00;101639.00;6175557;28;20054;-72
2022/12/27 02:31:41;;;;;;;4.47;0.98;;;;;;;2.77;100.00;101642.41;6175399;28;20054;-72
2022/12/27 02:34:51;;;;;;;5.65;0.70;;;;;;;2.83;100.00;101634.59;6175231;28;20050;-72
2022/12/27 02:37:59;;;;;;;2.20;0.90;;;;;;;2.88;100.00;101629.38;6173863;28;20043;-72
2022/12/27 02:55:07;;;;;;;2.70;1.50;;;;;;;2.84;100.00;101636.31;6173866;28;20043;-72
2022/12/27 02:58:25;;;;;;;2.65;0.77;;;;;;;2.79;100.00;101633.75;6174653;28;20054;-72
2022/12/27 03:05:08;;;;;;;5.18;1.20;;;;;;;2.73;100.00;101631.22;6174401;28;20047;-72
2022/12/27 03:08:17;;;;;;;4.78;1.27;;;;;;;2.74;100.00;101637.25;6173472;28;20070;-72
2022/12/27 03:18:09;;;;;;;2.58;1.20;;;;;;;2.79;100.00;101645.88;6150479;29;20055;-72
2022/12/27 03:34:52;;;;;;;2.45;0.80;;;;;;;2.77;100.00;101645.00;6173835;28;20507;-72
2022/12/27 03:38:04;;;;;;;7.38;1.77;;;;;;;2.73;100.00;101640.75;6157799;28;20062;-72
2022/12/27 03:44:28;;;;;;;5.55;1.60;;;;;;;2.80;100.00;101640.66;6149636;29;20511;-72
2022/12/27 03:47:36;;;;;;;2.70;1.20;;;;;;;2.86;100.00;101657.06;6156862;28;20074;-72
2022/12/27 03:50:44;;;;;;;6.28;2.13;;;;;;;2.85;100.00;101643.22;6173652;28;20078;-72
2022/12/27 03:53:50;;;;;;;2.08;1.17;;;;;;;2.87;100.00;101656.22;6173690;28;20057;-72
2022/12/27 03:56:53;;;;;;;6.45;2.15;;;;;;;2.88;100.00;101650.16;6173698;28;20058;-72
2022/12/27 03:59:54;;;;;;;3.65;1.42;;;;;;;2.89;100.00;101651.88;6173653;28;20050;-72
2022/12/27 04:02:56;;;;;;;12.70;2.70;;;;;;;2.90;100.00;101653.56;6173638;28;20050;-72
2022/12/27 04:05:57;;;;;;;1.27;1.17;;;;;;;2.91;100.00;101671.75;6173334;28;20411;-72
2022/12/27 04:35:33;;;;;;;8.27;2.28;;;;;;;3.17;100.00;101665.50;6150855;28;20082;-72
2022/12/27 04:38:34;;;;;;;3.55;1.63;;;;;;;3.17;100.00;101662.91;6154111;29;20495;-72
2022/12/27 04:54:56;;;;;;;4.40;1.83;;;;;;;3.19;100.00;101667.22;6153525;29;20043;-72
2022/12/27 04:57:59;;;;;;;5.00;2.20;;;;;;;3.19;100.00;101674.16;6153581;29;20058;-71
2022/12/27 05:04:23;;;;;;;5.32;2.65;;;;;;;3.20;100.00;101673.28;6153139;29;20055;-72
2022/12/27 05:14:09;;;;;;;8.32;2.55;;;;;;;3.21;100.00;101699.22;6153070;29;20508;-72
2022/12/27 05:17:10;;;;;;;7.93;3.00;;;;;;;3.20;100.00;101707.03;6153311;29;20500;-72
2022/12/27 05:20:11;;;;;;;4.53;2.17;;;;;;;3.21;100.00;101707.00;6152765;29;20411;-72
2022/12/27 05:26:33;;;;;;;14.50;3.10;;;;;;;3.24;100.00;101713.94;6152719;29;20134;-72
2022/12/27 05:29:35;;;;;;;8.88;3.05;;;;;;;3.28;100.00;101719.09;6153111;29;20062;-72
2022/12/27 05:32:37;;;;;;;12.82;3.42;;;;;;;3.27;100.00;101706.09;6152747;29;20051;-72
2022/12/27 05:35:38;;;;;;;5.90;2.25;;;;;;;3.22;100.00;101710.47;6152766;29;20051;-72
2022/12/27 05:38:40;;;;;;;8.70;2.58;;;;;;;3.19;100.00;101720.91;6152740;29;20415;-72
2022/12/27 05:41:41;;;;;;;3.97;2.28;;;;;;;3.16;100.00;101705.34;6152363;29;20055;-72
2022/12/27 05:44:44;;;;;;;7.55;2.72;;;;;;;3.17;100.00;101725.22;6152501;29;20051;-72
2022/12/27 05:47:45;;;;;;;6.43;2.83;;;;;;;3.18;100.00;101720.03;6151601;28;20499;-72
2022/12/27 05:50:47;;;;;;;7.15;2.58;;;;;;;3.08;100.00;101723.56;6152371;29;20055;-72
2022/12/27 05:53:54;;;;;;;6.13;2.80;;;;;;;3.02;100.00;101724.47;6152149;29;20052;-72
2022/12/27 05:56:56;;;;;;;4.45;2.40;;;;;;;3.04;100.00;101745.22;6152473;29;20062;-72
2022/12/27 05:59:58;;;;;;;6.20;2.35;;;;;;;2.97;100.00;101751.34;6152215;29;20059;-72
2022/12/27 06:03:01;;;;;;;4.88;2.17;;;;;;;2.94;100.00;101761.72;6152130;29;20055;-72
2022/12/27 06:06:04;;;;;;;8.30;1.95;;;;;;;2.94;100.00;101760.00;6154405;28;20061;-72
2022/12/27 06:09:05;;;;;;;10.40;2.55;;;;;;;2.94;100.00;101757.41;6165160;28;20047;-72
2022/12/27 06:12:07;;;;;;;7.35;2.88;;;;;;;3.00;100.00;101761.72;6158971;28;20062;-71
2022/12/27 06:15:10;;;;;;;5.28;2.47;;;;;;;2.99;100.00;101759.97;6151676;29;20389;-72
2022/12/27 06:18:12;;;;;;;4.05;2.78;;;;;;;2.97;100.00;101770.38;6151771;29;20643;-71
2022/12/27 06:21:15;;;;;;;5.32;3.15;;;;;;;2.94;100.00;101764.31;6151780;29;20051;-72
2022/12/27 06:24:17;;;;;;;3.78;1.90;;;;;;;2.97;100.00;101772.09;6151614;29;20148;-72
2022/12/27 06:27:18;;;;;;;2.67;1.85;;;;;;;2.93;100.00;101771.25;6161685;28;20052;-72
2022/12/27 06:30:21;;;;;;;3.33;2.35;;;;;;;2.94;100.00;101772.13;6169084;28;20061;-72
2022/12/27 06:33:22;;;;;;;3.95;2.53;;;;;;;2.95;100.00;101782.50;6161470;28;20058;-72
2022/12/27 06:36:26;;;;;;;6.03;2.60;;;;;;;2.96;100.00;101792.03;6156952;28;20137;-72
2022/12/27 06:39:27;;;;;;;6.57;2.13;;;;;;;2.97;100.00;101785.09;6169111;28;20051;-72
2022/12/27 06:42:29;;;;;;;2.40;1.58;;;;;;;2.99;100.00;101791.13;6162691;28;20058;-72
2022/12/27 06:45:32;;;;;;;6.05;2.15;;;;;;;3.04;100.00;101794.56;6160638;28;20051;-72
2022/12/27 06:48:34;;;;;;;4.57;2.50;;;;;;;3.04;100.00;101784.16;6161648;28;20511;-72
2022/12/27 06:51:36;;;;;;;8.95;2.25;;;;;;;3.05;100.00;101793.72;6161312;28;20514;-71
2022/12/27 06:54:37;;;;;;;5.15;2.35;;;;;;;3.11;100.00;101798.84;6160683;28;20400;-71
2022/12/27 06:57:38;;;;;;;5.15;2.40;;;;;;;3.18;100.00;101812.66;6161526;28;20054;-72
2022/12/27 07:00:42;;;;;;;5.40;2.55;;;;;;;3.23;100.00;101818.72;6160567;28;20047;-72
2022/12/27 07:03:43;;;;;;;4.95;2.35;;;;;;;3.30;100.00;101820.38;6161938;28;20051;-72
2022/12/27 07:06:44;;;;;;;7.20;2.08;;;;;;;3.33;100.00;101817.78;6159822;28;20053;-72
2022/12/27 07:09:46;;;;;;;4.07;2.33;;;;;;;3.43;100.00;101822.03;6162323;28;20062;-72
2022/12/27 07:12:47;;;;;;;5.72;2.22;;;;;;;3.48;100.00;101822.00;6159657;28;20055;-73
2022/12/27 07:15:50;;;;;;;5.55;1.92;;;;;;;3.54;100.00;101827.16;6174628;28;20054;-72
2022/12/27 07:18:52;;;;;;;6.57;1.85;;;;;;;3.51;100.00;101843.66;6174490;28;20050;-72
2022/12/27 07:21:53;;;;;;;4.40;1.80;;;;;;;3.56;100.00;101841.88;6174398;28;20418;-72
2022/12/27 07:24:54;;;;;;;5.40;1.92;;;;;;;3.65;100.00;101842.69;6174121;28;20046;-72
2022/12/27 07:27:56;;;;;;;13.32;2.63;;;;;;;3.65;100.00;101837.50;6174584;28;20130;-72
2022/12/27 07:30:58;;;;;;;7.03;2.20;;;;;;;3.66;100.00;101841.81;6174223;28;20081;-71
2022/12/27 07:34:01;;;;;;;5.43;1.92;;;;;;;3.66;100.00;101855.66;6173834;28;20097;-72
2022/12/27 07:37:03;;;;;;;3.70;1.55;;;;;;;3.68;100.00;101868.63;6174086;28;20047;-72
2022/12/27 07:40:05;;;;;;;6.00;1.83;;;;;;;3.66;100.00;101875.59;6173702;28;20491;-72
2022/12/27 07:43:06;;;;;;;3.80;2.05;;;;;;;3.68;100.00;101882.53;6173915;28;20050;-72
2022/12/27 07:46:11;;;;;;;8.27;2.13;;;;;;;3.63;100.00;101880.81;6173659;28;20050;-71
2022/12/27 07:49:12;;;;;;;4.10;1.95;;;;;;;3.60;100.00;101886.03;6174186;28;20054;-72
2022/12/27 07:52:14;;;;;;;2.65;1.67;;;;;;;3.49;100.00;101880.88;6173657;28;20065;-72
2022/12/27 07:55:15;;;;;;;8.55;1.85;;;;;;;3.46;100.00;101892.19;6173859;28;20054;-72
2022/12/27 07:58:17;;;;;;;4.85;2.40;;;;;;;3.47;100.00;101908.63;6161994;28;20077;-72
2022/12/27 08:01:22;;;;;;;2.80;1.80;;;;;;;3.36;100.00;101890.50;6159937;28;20043;-72
2022/12/27 08:04:23;;;;;;;6.65;1.95;;;;;;;3.30;100.00;101904.38;6159880;28;20047;-72
2022/12/27 08:07:25;;;;;;;6.93;2.72;;;;;;;3.40;100.00;101915.59;6173500;28;20043;-72
2022/12/27 08:10:27;;;;;;;8.10;2.38;;;;;;;3.40;100.00;101914.72;6177090;28;20105;-72
2022/12/27 08:13:28;;;;;;;5.35;1.83;;;;;;;3.47;100.00;101924.22;6168787;28;20058;-72
2022/12/27 08:16:31;;;;;;;11.35;2.30;;;;;;;3.53;100.00;101922.44;6157669;28;20514;-71
2022/12/27 08:19:32;;;;;;;4.15;2.22;;;;;;;3.65;100.00;101925.88;6157356;29;20051;-72
2022/12/27 08:22:33;;;;;;;1.95;1.75;;;;;;;3.73;100.00;101937.09;6157415;28;20048;-73
2022/12/27 08:25:35;;;;;;;7.68;2.13;;;;;;;3.72;100.00;101925.78;6157287;28;20051;-72
2022/12/27 08:28:36;;;;;;;5.47;2.60;;;;;;;3.68;100.00;101924.13;6157484;29;20054;-72
2022/12/27 08:31:39;;;;;;;8.45;2.40;;;;;;;3.71;100.00;101921.47;6157365;29;20095;-72
2022/12/27 08:34:40;;;;;;;9.18;1.65;;;;;;;3.72;100.00;101923.19;6157042;28;20047;-73
2022/12/27 08:37:42;;;;;;;13.65;2.63;;;;;;;3.66;100.00;101932.78;6157469;29;20043;-72
2022/12/27 08:40:44;;;;;;;4.47;2.13;;;;;;;3.72;100.00;101933.59;6157061;29;20499;-72
2022/12/27 08:43:45;;;;;;;7.97;3.47;;;;;;;3.73;100.00;101940.53;6157128;28;20055;-72
2022/12/27 08:46:48;;;;;;;6.25;2.60;;;;;;;3.73;100.00;101932.75;6157223;28;20174;-72
2022/12/27 08:49:49;;;;;;;3.67;2.30;;;;;;;3.66;100.00;101925.00;6157077;29;20057;-72
2022/12/27 08:52:51;;;;;;;8.40;2.00;;;;;;;3.68;100.00;101931.03;6157171;29;20546;-72
2022/12/27 08:55:55;;;;;;;8.77;2.95;;;;;;;3.70;100.00;101942.28;6157131;28;20047;-72
2022/12/27 08:58:56;;;;;;;11.93;3.08;;;;;;;3.71;100.00;101951.81;6157195;29;20055;-72
2022/12/27 09:01:59;;;;;;;5.68;2.63;;;;;;;3.72;100.00;101940.53;6157162;28;20054;-72
2022/12/27 09:05:00;;;;;;;10.68;3.22;;;;;;;3.73;100.00;101945.75;6156702;28;20055;-72
2022/12/27 09:08:01;;;;;;;4.75;2.78;;;;;;;3.77;100.00;101956.97;6156926;29;20062;-72
2022/12/27 09:11:15;;;;;;;6.22;2.40;;;;;;;3.79;100.00;101952.63;6156965;28;20055;-72
2022/12/27 09:14:16;;;;;;;4.20;2.47;;;;;;;3.79;100.00;101970.84;6156758;28;20495;-72
2022/12/27 09:17:18;;;;;;;3.15;1.98;;;;;;;3.77;100.00;101970.84;6157010;28;20054;-72
2022/12/27 09:20:20;;;;;;;8.80;2.00;;;;;;;3.75;100.00;101977.78;6156625;29;20419;-72
2022/12/27 09:23:21;;;;;;;4.15;2.17;;;;;;;3.80;100.00;101975.16;6155770;28;20051;-72
2022/12/27 09:26:25;;;;;;;5.10;2.63;;;;;;;3.76;100.00;101978.66;6152719;29;20061;-72
2022/12/27 09:29:26;;;;;;;4.70;2.45;;;;;;;3.74;100.00;101986.47;6153094;29;20138;-71
2022/12/27 09:32:29;;;;;;;2.63;1.92;;;;;;;3.81;100.00;101985.56;6152532;29;20401;-72
2022/12/27 09:35:30;;;;;;;4.55;2.00;;;;;;;3.86;100.00;101985.53;6151446;29;20054;-72
2022/12/27 09:38:31;;;;;;;9.60;2.30;;;;;;;3.89;100.00;101989.84;6152826;29;20062;-72
2022/12/27 09:41:45;;;;;;;2.35;1.65;;;;;;;3.90;100.00;102004.56;6152920;29;20522;-71
2022/12/27 09:44:51;;;;;;;13.70;2.95;;;;;;;3.94;100.00;102012.34;6152513;29;20055;-72
2022/12/27 09:47:58;;;;;;;5.55;2.17;;;;;;;3.96;100.00;102015.81;6152743;29;20051;-72
2022/12/27 09:51:03;;;;;;;6.80;2.05;;;;;;;4.00;100.00;102027.09;6152488;29;20056;-71
2022/12/27 09:54:13;;;;;;;5.18;2.45;;;;;;;4.04;100.00;102020.97;6152427;29;20051;-72
2022/12/27 09:57:19;;;;;;;7.38;2.55;;;;;;;4.08;100.00;102025.28;6152453;29;20047;-72
2022/12/27 10:00:23;;;;;;;3.25;2.30;;;;;;;4.07;100.00;102020.94;6152386;29;20066;-72
2022/12/27 10:03:28;;;;;;;3.92;2.40;;;;;;;4.09;100.00;102024.41;6151952;29;20153;-72
2022/12/27 10:06:47;;;;;;;5.47;2.53;;;;;;;4.09;100.00;102021.81;6152241;29;20055;-72
2022/12/27 10:09:59;;;;;;;3.65;2.20;;;;;;;4.10;100.00;102020.94;6151949;29;20054;-72
2022/12/27 10:13:10;;;;;;;3.53;1.73;;;;;;;4.23;100.00;102024.34;6151960;29;20610;-72
2022/12/27 10:16:23;;;;;;;4.07;1.73;;;;;;;4.24;100.00;102031.25;6151885;29;20047;-72
2022/12/27 10:19:36;;;;;;;6.53;2.50;;;;;;;4.19;100.00;102041.69;6151843;29;20562;-72
2022/12/27 10:22:46;;;;;;;9.55;2.25;;;;;;;4.23;100.00;102029.53;6151772;29;20058;-72
2022/12/27 10:25:52;;;;;;;9.32;2.67;;;;;;;4.19;100.00;102031.28;6151954;29;20055;-73
2022/12/27 10:28:58;;;;;;;3.20;1.77;;;;;;;4.13;100.00;102022.63;6151756;29;20054;-72
2022/12/27 10:32:00;;;;;;;8.07;2.15;;;;;;;4.13;100.00;102026.09;6151717;29;20055;-72
2022/12/27 10:35:04;;;;;;;8.05;2.65;;;;;;;4.18;100.00;102034.78;6150812;28;20051;-72
2022/12/27 10:38:10;;;;;;;5.55;2.30;;;;;;;4.25;100.00;102017.38;6151812;29;20419;-72
2022/12/27 10:41:28;;;;;;;9.13;3.00;;;;;;;4.30;100.00;102026.00;6151166;29;20054;-73
2022/12/27 10:44:30;;;;;;;6.03;2.15;;;;;;;4.41;100.00;102024.22;6151179;29;20051;-73
2022/12/27 10:47:31;;;;;;;3.95;2.55;;;;;;;4.44;100.00;102028.50;6151117;29;20043;-73
2022/12/27 10:50:34;;;;;;;4.25;2.75;;;;;;;4.51;100.00;102032.81;6155951;28;20046;-73
2022/12/27 10:53:38;;;;;;;4.63;2.30;;;;;;;4.55;100.00;102035.38;6179174;28;20088;-72
2022/12/27 10:56:42;;;;;;;6.80;2.13;;;;;;;4.53;100.00;102037.09;6178812;28;20127;-72
2022/12/27 10:59:44;;;;;;;3.95;1.58;;;;;;;4.57;100.00;102037.97;6190612;28;20505;-72
2022/12/27 11:02:50;;;;;;;1.42;1.02;;;;;;;4.55;100.00;102039.72;6189004;28;20391;-72
2022/12/27 11:06:01;;;;;;;1.58;1.23;;;;;;;4.59;100.00;102044.03;6198768;28;20180;-72
2022/12/27 11:09:20;;;;;;;3.13;1.60;;;;;;;4.56;100.00;102038.84;6178739;28;20046;-72
2022/12/27 11:12:23;;;;;;;1.83;1.35;;;;;;;4.54;100.00;102049.28;6185661;28;20077;-72
2022/12/27 11:15:26;;;;;;;3.83;1.20;;;;;;;4.58;100.00;102045.75;6150605;29;20077;-73
2022/12/27 11:18:27;;;;;;;3.55;1.70;;;;;;;4.64;100.00;102031.84;6150664;29;20047;-73
2022/12/27 11:21:31;;;;;;;4.88;1.30;;;;;;;4.64;100.00;102034.44;6150305;29;20051;-73
2022/12/27 11:24:32;;;;;;;4.22;1.83;;;;;;;4.70;100.00;102025.72;6150401;29;20054;-73
2022/12/27 11:27:34;;;;;;;3.60;1.60;;;;;;;4.79;100.00;102028.22;6150255;29;20050;-73
2022/12/27 11:30:39;;;;;;;4.65;1.90;;;;;;;4.76;100.00;102029.09;6150360;29;20047;-73
2022/12/27 11:33:45;;;;;;;3.42;1.75;;;;;;;4.89;100.00;102029.00;6150407;29;20055;-73
2022/12/27 11:36:51;;;;;;;5.63;2.15;;;;;;;4.84;100.00;102031.66;6159467;28;20071;-73
2022/12/27 11:39:54;;;;;;;3.80;1.60;;;;;;;4.87;100.00;102033.38;6187914;28;20100;-73
2022/12/27 11:43:03;;;;;;;13.82;1.92;;;;;;;4.85;100.00;102041.19;6188941;28;20122;-73
2022/12/27 11:46:13;;;;;;;4.97;2.08;;;;;;;4.83;100.00;102042.97;6192343;28;20042;-73
2022/12/27 11:49:23;;;;;;;2.90;1.90;;;;;;;4.85;100.00;102051.59;6198168;28;20426;-73
2022/12/27 11:52:43;;;;;;;12.68;2.20;;;;;;;4.88;100.00;102051.59;6195258;28;20498;-73
2022/12/27 11:56:05;;;;;;;2.33;1.45;;;;;;;4.90;100.00;102049.81;6178336;28;20057;-73
2022/12/27 11:59:23;;;;;;;2.75;1.85;;;;;;;5.16;100.00;102060.00;6190137;28;20057;-73
2022/12/27 12:02:35;;;;;;;4.05;1.65;;;;;;;5.23;100.00;102053.88;6183136;28;20159;-74
2022/12/27 12:05:48;;;;;;;8.57;1.90;;;;;;;5.17;100.00;102048.69;6171881;28;20058;-73
2022/12/27 12:09:20;;;;;;;8.18;1.75;;;;;;;5.21;100.00;102052.16;6171733;28;20077;-74
2022/12/27 12:12:50;;;;;;;4.43;1.85;;;;;;;5.36;100.00;102057.22;6181937;28;20046;-74
2022/12/27 12:16:00;;;;;;;;;;;;;;;5.47;100.00;102050.13;6170997;28;20047;-74
2022/12/27 12:19:25;;;;;;;14.10;2.28;;;;;;;5.45;100.00;102048.41;6177121;28;20374;-73
2022/12/27 12:22:39;;;;;;;5.10;1.50;;;;;;;5.53;100.00;102050.06;6173483;28;20050;-73
2022/12/27 12:26:10;;;;;;;13.43;2.05;;;;;;;5.54;100.00;102056.13;6173404;28;20051;-72
2022/12/27 12:29:28;;;;;;;7.40;2.05;;;;;;;5.58;100.00;102045.63;6173590;28;20050;-73
2022/12/27 12:32:43;;;;;;;2.67;1.85;;;;;;;5.64;100.00;102039.50;6173404;28;20098;-73
2022/12/27 12:35:59;;;;;;;4.63;1.95;;;;;;;5.75;100.00;102042.84;6173265;28;20415;-73
2022/12/27 12:39:05;;;;;;;4.45;2.00;;;;;;;5.78;100.00;102044.56;6173534;28;20054;-73
2022/12/27 12:42:22;;;;;;;4.30;1.95;;;;;;;5.72;100.00;102034.19;6173085;28;20062;-72
2022/12/27 12:45:43;;;;;;;3.38;2.03;;;;;;;5.60;100.00;102035.22;6173248;28;20074;-72
2022/12/27 12:49:07;;;;;;;3.50;2.10;;;;;;;5.55;100.00;102031.81;6168537;28;20046;-73
2022/12/27 12:52:30;;;;;;;5.93;2.35;;;;;;;5.56;100.00;102028.31;6186075;28;20055;-73
2022/12/27 12:55:51;;;;;;;8.23;2.55;;;;;;;5.55;100.00;102039.63;6187886;28;20425;-73
2022/12/27 12:59:07;;;;;;;3.58;2.30;;;;;;;5.42;100.00;102041.50;6201776;28;20043;-73
2022/12/27 13:02:33;;;;;;;5.63;2.50;;;;;;;5.49;100.00;102042.28;6193945;28;20057;-73
2022/12/27 13:05:44;;;;;;;4.30;2.03;;;;;;;5.53;100.00;102046.59;6200716;28;20514;-73
2022/12/27 13:08:54;;;;;;;10.02;2.05;;;;;;;5.48;100.00;102040.56;6201681;28;20053;-73
2022/12/27 13:12:02;;;;;;;8.15;2.22;;;;;;;5.46;100.00;102032.78;6201655;28;20053;-73
2022/12/27 13:15:22;;;;;;;3.95;1.85;;;;;;;5.44;100.00;102025.84;6201353;28;20050;-73
2022/12/27 13:18:31;;;;;;;5.18;3.15;;;;;;;5.44;100.00;102029.28;6194765;28;20043;-73
2022/12/27 13:21:53;;;;;;;7.35;2.20;;;;;;;5.47;100.00;102036.22;6200227;28;20053;-73
2022/12/27 13:25:13;;;;;;;8.25;1.75;;;;;;;5.47;100.00;102034.50;6201105;28;20058;-73
2022/12/27 13:28:28;;;;;;;9.38;2.40;;;;;;;5.44;100.00;102029.28;6201022;28;20058;-73
2022/12/27 13:31:43;;;;;;;6.90;2.35;;;;;;;5.52;100.00;102026.63;6201249;28;20054;-73
2022/12/27 13:34:57;;;;;;;4.55;1.83;;;;;;;5.56;100.00;102017.88;6178247;28;20051;-73
2022/12/27 13:38:14;;;;;;;8.05;1.70;;;;;;;5.53;100.00;102025.72;6171021;28;20101;-73
2022/12/27 13:41:26;;;;;;;2.92;1.70;;;;;;;5.49;100.00;102029.25;6176937;28;20051;-73
2022/12/27 13:44:44;;;;;;;3.10;2.00;;;;;;;5.52;100.00;102034.44;6176419;28;20070;-73
2022/12/27 13:48:15;;;;;;;14.75;2.15;;;;;;;5.49;100.00;102019.69;6176559;28;20141;-73
2022/12/27 13:51:34;;;;;;;3.80;1.67;;;;;;;5.52;100.00;102010.97;6173030;28;20053;-73
2022/12/27 13:54:52;;;;;;;10.38;2.15;;;;;;;5.48;100.00;102010.13;6182857;28;20181;-73
2022/12/27 13:58:15;;;;;;;8.40;1.88;;;;;;;5.42;100.00;102014.56;6182271;28;20042;-73
2022/12/27 14:01:41;;;;;;;3.83;1.67;;;;;;;5.45;100.00;102006.69;6174918;28;20491;-73
2022/12/27 14:05:06;;;;;;;3.72;2.10;;;;;;;5.40;100.00;101998.06;6166440;28;20130;-73
2022/12/27 14:08:20;;;;;;;7.22;2.22;;;;;;;5.44;100.00;101992.81;6171079;28;20054;-73
2022/12/27 14:11:35;;;;;;;5.60;2.25;;;;;;;5.37;100.00;101987.69;6175834;28;20061;-73
2022/12/27 14:14:40;;;;;;;3.58;1.90;;;;;;;5.39;100.00;101988.53;6175988;28;20061;-73
2022/12/27 14:17:47;;;;;;;6.70;2.88;;;;;;;5.29;100.00;101980.81;6176256;28;20078;-72
2022/12/27 14:21:06;;;;;;;3.50;2.03;;;;;;;5.31;100.00;101979.06;6175932;28;20046;-73
2022/12/27 14:24:23;;;;;;;2.65;2.00;;;;;;;5.26;100.00;101978.25;6175573;28;20435;-73
2022/12/27 14:27:48;;;;;;;2.92;1.92;;;;;;;5.24;100.00;101980.00;6175726;28;20051;-73
2022/12/27 14:31:46;;;;;;;7.25;2.15;;;;;;;5.15;100.00;101977.50;6172553;28;20050;-72
2022/12/27 14:35:17;;;;;;;19.67;3.10;;;;;;;5.16;100.00;101976.63;6171189;28;20054;-73
2022/12/27 14:38:37;;;;;;;7.78;2.40;;;;;;;5.15;100.00;101976.66;6175329;28;20055;-73
2022/12/27 14:41:56;;;;;;;;;;;;;;;5.09;100.00;101973.25;6175818;28;20055;-73
2022/12/27 14:45:35;;;;;;;3.50;1.77;;;;;;;5.08;100.00;101978.44;6175075;28;19925;-73
2022/12/27 14:49:12;;;;;;;5.10;2.05;;;;;;;5.09;100.00;101969.78;6175391;28;20415;-73
2022/12/27 14:52:42;;;;;;;5.57;2.40;;;;;;;5.06;100.00;101970.66;6181097;28;20058;-73
2022/12/27 14:55:52;;;;;;;2.95;1.77;;;;;;;4.93;100.00;101969.06;6160065;28;20065;-72
2022/12/27 14:59:10;;;;;;;3.85;2.03;;;;;;;4.91;100.00;101972.56;6174672;28;20054;-73
2022/12/27 15:02:34;;;;;;;3.55;2.03;;;;;;;4.86;100.00;101970.03;6174641;28;20079;-73
2022/12/27 15:05:48;;;;;;;3.67;2.08;;;;;;;4.80;100.00;101970.91;6174796;28;20513;-73
2022/12/27 15:09:03;;;;;;;5.55;2.42;;;;;;;4.77;100.00;101973.56;6174757;28;20046;-74
2022/12/27 15:12:18;;;;;;;5.80;2.40;;;;;;;4.78;100.00;101970.09;6174619;28;20051;-72
2022/12/27 15:15:28;;;;;;;3.78;2.47;;;;;;;4.72;100.00;101972.72;6174575;28;20054;-73
2022/12/27 15:18:55;;;;;;;3.05;1.77;;;;;;;4.68;100.00;101965.84;6174477;28;20051;-73
2022/12/27 15:22:06;;;;;;;8.07;2.58;;;;;;;4.62;100.00;101962.41;6174584;28;20489;-73
2022/12/27 15:25:23;;;;;;;2.70;1.85;;;;;;;4.56;100.00;101968.56;6174170;28;20503;-73
2022/12/27 15:28:36;;;;;;;3.33;2.22;;;;;;;4.60;100.00;101964.19;6174172;28;20046;-73
2022/12/27 15:31:48;;;;;;;8.60;2.00;;;;;;;4.50;100.00;101969.47;6174393;28;20047;-73
2022/12/27 15:35:08;;;;;;;12.65;3.25;;;;;;;4.51;100.00;101959.91;6173751;28;20404;-74
2022/12/27 15:38:12;;;;;;;4.30;2.15;;;;;;;4.47;100.00;101951.28;6174263;28;20614;-73
2022/12/27 15:41:23;;;;;;;8.75;2.65;;;;;;;4.42;100.00;101953.06;6173509;28;20057;-73
2022/12/27 15:44:38;;;;;;;6.00;2.70;;;;;;;4.38;100.00;101955.69;6173980;28;20062;-73
2022/12/27 15:47:57;;;;;;;11.50;2.65;;;;;;;4.37;100.00;101946.16;6173937;28;20047;-73
2022/12/27 15:51:09;;;;;;;8.20;2.17;;;;;;;4.32;100.00;101954.88;6173136;28;20047;-73
2022/12/27 15:54:38;;;;;;;5.00;2.70;;;;;;;4.32;100.00;101941.88;6182041;28;20041;-74
2022/12/27 15:57:55;;;;;;;6.05;2.60;;;;;;;4.29;100.00;101939.28;6149853;29;20058;-73
2022/12/27 16:01:23;;;;;;;6.13;2.67;;;;;;;4.29;100.00;101935.81;6149530;29;20074;-73
2022/12/27 16:04:45;;;;;;;8.18;3.38;;;;;;;4.23;100.00;101930.66;6163085;28;20054;-73
2022/12/27 16:07:51;;;;;;;6.43;2.70;;;;;;;4.25;100.00;101928.91;6174554;28;20062;-73
2022/12/27 16:10:53;;;;;;;5.72;2.72;;;;;;;4.23;100.00;101933.28;6173700;28;20138;-73